sensor_id;sensor_type;location;lat;lon;timestamp;pressure;altitude;pressure_sealevel;temperature;humidity
44481;BME280;30184;42.018;23.670;2023-05-21T00:00:10;91358.06;;;10.29;99.52
44481;BME280;30184;42.018;23.670;2023-05-21T00:02:41;91370.44;;;10.30;99.98
44481;BME280;30184;42.018;23.670;2023-05-21T00:05:10;91379.13;;;10.25;100.00
44481;BME280;30184;42.018;23.670;2023-05-21T00:07:41;91371.59;;;10.17;100.00
44481;BME280;30184;42.018;23.670;2023-05-21T00:10:10;91366.25;;;10.13;100.00
44481;BME280;30184;42.018;23.670;2023-05-21T00:12:40;91369.09;;;10.09;100.00
44481;BME280;30184;42.018;23.670;2023-05-21T00:15:09;91372.56;;;10.10;100.00
44481;BME280;30184;42.018;23.670;2023-05-21T00:17:39;91369.41;;;10.11;100.00
44481;BME280;30184;42.018;23.670;2023-05-21T00:20:10;91379.47;;;10.11;100.00
44481;BME280;30184;42.018;23.670;2023-05-21T00:22:39;91369.53;;;10.08;100.00
44481;BME280;30184;42.018;23.670;2023-05-21T00:25:10;91376.97;;;10.04;100.00
44481;BME280;30184;42.018;23.670;2023-05-21T00:27:40;91365.66;;;9.93;100.00
44481;BME280;30184;42.018;23.670;2023-05-21T00:30:09;91379.47;;;9.98;100.00
44481;BME280;30184;42.018;23.670;2023-05-21T00:32:39;91377.94;;;9.97;100.00
44481;BME280;30184;42.018;23.670;2023-05-21T00:35:09;91369.47;;;9.95;100.00
44481;BME280;30184;42.018;23.670;2023-05-21T00:37:39;91373.28;;;9.98;100.00
44481;BME280;30184;42.018;23.670;2023-05-21T00:40:09;91369.81;;;9.97;100.00
44481;BME280;30184;42.018;23.670;2023-05-21T00:42:39;91368.63;;;9.98;100.00
44481;BME280;30184;42.018;23.670;2023-05-21T00:45:08;91372.88;;;9.99;100.00
44481;BME280;30184;42.018;23.670;2023-05-21T00:47:38;91368.97;;;10.00;100.00
44481;BME280;30184;42.018;23.670;2023-05-21T00:50:10;91359.19;;;10.03;100.00
44481;BME280;30184;42.018;23.670;2023-05-21T00:52:42;91306.19;;;9.60;100.00
44481;BME280;30184;42.018;23.670;2023-05-21T00:55:12;91255.28;;;8.97;100.00
44481;BME280;30184;42.018;23.670;2023-05-21T00:57:41;91413.25;;;10.10;100.00
44481;BME280;30184;42.018;23.670;2023-05-21T01:00:13;91353.59;;;10.10;100.00
44481;BME280;30184;42.018;23.670;2023-05-21T01:02:43;91359.00;;;10.10;100.00
44481;BME280;30184;42.018;23.670;2023-05-21T01:05:13;91359.75;;;10.10;100.00
44481;BME280;30184;42.018;23.670;2023-05-21T01:07:43;91351.41;;;10.05;100.00
44481;BME280;30184;42.018;23.670;2023-05-21T01:10:13;91107.09;;;8.31;100.00
44481;BME280;30184;42.018;23.670;2023-05-21T01:12:43;91352.16;;;10.05;100.00
44481;BME280;30184;42.018;23.670;2023-05-21T01:15:13;91324.88;;;9.84;100.00
44481;BME280;30184;42.018;23.670;2023-05-21T01:17:43;91342.94;;;10.03;100.00
44481;BME280;30184;42.018;23.670;2023-05-21T01:20:15;91384.22;;;9.94;100.00
44481;BME280;30184;42.018;23.670;2023-05-21T01:22:53;91341.88;;;10.00;100.00
44481;BME280;30184;42.018;23.670;2023-05-21T01:25:24;91368.84;;;9.91;100.00
44481;BME280;30184;42.018;23.670;2023-05-21T01:27:53;91326.53;;;9.94;100.00
44481;BME280;30184;42.018;23.670;2023-05-21T01:30:23;91330.44;;;9.93;100.00
44481;BME280;30184;42.018;23.670;2023-05-21T01:32:57;91278.44;;;9.56;100.00
44481;BME280;30184;42.018;23.670;2023-05-21T01:35:32;91331.06;;;9.84;100.00
44481;BME280;30184;42.018;23.670;2023-05-21T01:38:10;91305.44;;;9.60;100.00
44481;BME280;30184;42.018;23.670;2023-05-21T01:40:45;91323.56;;;9.76;100.00
44481;BME280;30184;42.018;23.670;2023-05-21T01:43:17;91340.38;;;9.70;100.00
44481;BME280;30184;42.018;23.670;2023-05-21T01:45:48;91313.69;;;9.69;100.00
44481;BME280;30184;42.018;23.670;2023-05-21T01:48:21;91304.44;;;9.54;100.00
44481;BME280;30184;42.018;23.670;2023-05-21T01:50:52;91314.66;;;9.62;100.00
44481;BME280;30184;42.018;23.670;2023-05-21T01:53:23;91309.41;;;9.55;100.00
44481;BME280;30184;42.018;23.670;2023-05-21T01:55:53;91310.63;;;9.54;100.00
44481;BME280;30184;42.018;23.670;2023-05-21T01:58:22;91266.97;;;9.23;100.00
44481;BME280;30184;42.018;23.670;2023-05-21T02:00:51;91301.91;;;9.47;100.00
44481;BME280;30184;42.018;23.670;2023-05-21T02:03:23;91278.22;;;9.22;100.00
44481;BME280;30184;42.018;23.670;2023-05-21T02:05:53;91292.81;;;9.41;100.00
44481;BME280;30184;42.018;23.670;2023-05-21T02:08:24;91291.28;;;9.40;100.00
44481;BME280;30184;42.018;23.670;2023-05-21T02:10:54;91290.63;;;9.35;100.00
44481;BME280;30184;42.018;23.670;2023-05-21T02:13:23;91291.56;;;9.29;100.00
44481;BME280;30184;42.018;23.670;2023-05-21T02:15:53;91291.56;;;9.29;100.00
44481;BME280;30184;42.018;23.670;2023-05-21T02:18:23;91286.91;;;9.29;100.00
44481;BME280;30184;42.018;23.670;2023-05-21T02:20:53;91283.56;;;9.25;100.00
44481;BME280;30184;42.018;23.670;2023-05-21T02:23:23;91283.22;;;9.23;100.00
44481;BME280;30184;42.018;23.670;2023-05-21T02:25:52;91277.03;;;9.23;100.00
44481;BME280;30184;42.018;23.670;2023-05-21T02:28:22;91281.69;;;9.22;100.00
44481;BME280;30184;42.018;23.670;2023-05-21T02:30:51;91274.75;;;9.21;100.00
44481;BME280;30184;42.018;23.670;2023-05-21T02:33:20;91272.47;;;9.20;100.00
44481;BME280;30184;42.018;23.670;2023-05-21T02:35:49;91275.59;;;9.18;100.00
44481;BME280;30184;42.018;23.670;2023-05-21T02:38:18;91269.41;;;9.18;100.00
44481;BME280;30184;42.018;23.670;2023-05-21T02:40:51;91271.81;;;9.16;100.00
44481;BME280;30184;42.018;23.670;2023-05-21T02:43:20;91268.34;;;9.15;100.00
44481;BME280;30184;42.018;23.670;2023-05-21T02:45:49;91241.50;;;8.92;100.00
44481;BME280;30184;42.018;23.670;2023-05-21T02:48:19;91266.06;;;9.14;100.00
44481;BME280;30184;42.018;23.670;2023-05-21T02:50:48;91265.31;;;9.13;100.00
44481;BME280;30184;42.018;23.670;2023-05-21T02:53:17;91255.25;;;9.14;100.00
44481;BME280;30184;42.018;23.670;2023-05-21T02:55:47;91262.59;;;9.13;100.00
44481;BME280;30184;42.018;23.670;2023-05-21T02:58:18;91261.06;;;9.12;100.00
44481;BME280;30184;42.018;23.670;2023-05-21T03:00:50;91261.91;;;9.09;100.00
44481;BME280;30184;42.018;23.670;2023-05-21T03:03:20;91257.25;;;9.10;100.00
44481;BME280;30184;42.018;23.670;2023-05-21T03:05:49;91260.75;;;9.10;100.00
44481;BME280;30184;42.018;23.670;2023-05-21T03:08:19;91264.97;;;9.11;100.00
44481;BME280;30184;42.018;23.670;2023-05-21T03:10:49;91255.84;;;9.05;100.00
44481;BME280;30184;42.018;23.670;2023-05-21T03:13:19;91270.72;;;9.13;100.00
44481;BME280;30184;42.018;23.670;2023-05-21T03:15:50;91279.59;;;9.14;100.00
44481;BME280;30184;42.018;23.670;2023-05-21T03:18:23;91238.97;;;8.85;100.00
44481;BME280;30184;42.018;23.670;2023-05-21T03:20:52;91285.78;;;9.14;100.00
44481;BME280;30184;42.018;23.670;2023-05-21T03:23:21;91200.66;;;8.57;100.00
44481;BME280;30184;42.018;23.670;2023-05-21T03:25:50;91296.19;;;9.16;100.00
44481;BME280;30184;42.018;23.670;2023-05-21T03:28:22;91290.66;;;9.19;100.00
44481;BME280;30184;42.018;23.670;2023-05-21T03:30:51;91288.72;;;9.20;100.00
44481;BME280;30184;42.018;23.670;2023-05-21T03:33:39;91281.34;;;9.20;100.00
44481;BME280;30184;42.018;23.670;2023-05-21T03:36:23;91278.66;;;9.20;99.84
44481;BME280;30184;42.018;23.670;2023-05-21T03:38:52;91277.03;;;9.23;99.92
44481;BME280;30184;42.018;23.670;2023-05-21T03:41:21;91192.78;;;8.63;99.54
44481;BME280;30184;42.018;23.670;2023-05-21T03:43:57;91277.69;;;9.27;99.49
44481;BME280;30184;42.018;23.670;2023-05-21T03:46:30;91276.00;;;9.33;99.56
44481;BME280;30184;42.018;23.670;2023-05-21T03:49:05;91273.38;;;9.29;98.80
44481;BME280;30184;42.018;23.670;2023-05-21T03:51:36;91236.94;;;9.18;98.68
44481;BME280;30184;42.018;23.670;2023-05-21T03:54:08;91283.28;;;9.49;98.48
44481;BME280;30184;42.018;23.670;2023-05-21T03:56:37;91274.53;;;9.57;98.56
44481;BME280;30184;42.018;23.670;2023-05-21T03:59:08;91276.19;;;9.67;98.50
44481;BME280;30184;42.018;23.670;2023-05-21T04:01:37;91276.00;;;9.74;98.07
44481;BME280;30184;42.018;23.670;2023-05-21T04:04:10;91273.19;;;9.78;97.69
44481;BME280;30184;42.018;23.670;2023-05-21T04:06:40;91273.72;;;9.86;97.84
44481;BME280;30184;42.018;23.670;2023-05-21T04:09:10;91269.94;;;9.96;97.51
44481;BME280;30184;42.018;23.670;2023-05-21T04:11:39;91268.22;;;10.02;96.97
44481;BME280;30184;42.018;23.670;2023-05-21T04:14:11;91272.44;;;10.03;96.64
44481;BME280;30184;42.018;23.670;2023-05-21T04:16:40;91283.25;;;10.19;96.25
44481;BME280;30184;42.018;23.670;2023-05-21T04:19:10;91287.34;;;10.24;96.07
44481;BME280;30184;42.018;23.670;2023-05-21T04:21:40;91282.81;;;10.33;96.00
44481;BME280;30184;42.018;23.670;2023-05-21T04:24:13;91280.72;;;10.50;95.96
44481;BME280;30184;42.018;23.670;2023-05-21T04:26:56;91267.06;;;10.54;95.24
44481;BME280;30184;42.018;23.670;2023-05-21T04:29:31;91276.00;;;10.89;95.03
44481;BME280;30184;42.018;23.670;2023-05-21T04:32:00;91277.34;;;11.18;93.19
44481;BME280;30184;42.018;23.670;2023-05-21T04:34:29;91277.00;;;11.29;92.22
44481;BME280;30184;42.018;23.670;2023-05-21T04:37:01;91228.81;;;11.08;91.47
44481;BME280;30184;42.018;23.670;2023-05-21T04:39:30;91285.41;;;11.66;90.88
44481;BME280;30184;42.018;23.670;2023-05-21T04:41:59;91264.41;;;12.41;89.74
44481;BME280;30184;42.018;23.670;2023-05-21T04:44:31;91273.50;;;13.05;85.42
44481;BME280;30184;42.018;23.670;2023-05-21T04:47:00;91267.06;;;13.57;81.05
44481;BME280;30184;42.018;23.670;2023-05-21T04:49:29;91262.59;;;14.14;79.70
44481;BME280;30184;42.018;23.670;2023-05-21T04:52:01;91256.09;;;14.63;77.53
44481;BME280;30184;42.018;23.670;2023-05-21T04:54:30;91244.44;;;14.86;74.84
44481;BME280;30184;42.018;23.670;2023-05-21T04:57:00;91248.34;;;15.18;74.41
44481;BME280;30184;42.018;23.670;2023-05-21T04:59:31;91255.69;;;15.51;71.56
44481;BME280;30184;42.018;23.670;2023-05-21T05:02:00;91257.47;;;15.78;70.88
44481;BME280;30184;42.018;23.670;2023-05-21T05:04:30;91243.63;;;15.96;66.12
44481;BME280;30184;42.018;23.670;2023-05-21T05:06:59;91207.88;;;16.14;65.48
44481;BME280;30184;42.018;23.670;2023-05-21T05:09:28;91237.03;;;16.76;62.70
44481;BME280;30184;42.018;23.670;2023-05-21T05:11:58;91175.91;;;16.70;62.77
44481;BME280;30184;42.018;23.670;2023-05-21T05:14:27;91224.91;;;17.38;58.05
44481;BME280;30184;42.018;23.670;2023-05-21T05:16:58;91221.13;;;17.76;60.38
44481;BME280;30184;42.018;23.670;2023-05-21T05:19:28;91241.16;;;17.82;50.24
44481;BME280;30184;42.018;23.670;2023-05-21T05:21:58;91230.84;;;17.97;54.76
44481;BME280;30184;42.018;23.670;2023-05-21T05:24:27;91225.78;;;18.16;55.22
44481;BME280;30184;42.018;23.670;2023-05-21T05:26:56;91222.47;;;18.38;51.31
44481;BME280;30184;42.018;23.670;2023-05-21T05:29:25;91221.66;;;18.57;51.23
44481;BME280;30184;42.018;23.670;2023-05-21T05:31:54;91229.50;;;18.44;51.42
44481;BME280;30184;42.018;23.670;2023-05-21T05:34:25;91223.94;;;18.59;54.87
44481;BME280;30184;42.018;23.670;2023-05-21T05:36:54;91215.50;;;18.68;48.46
44481;BME280;30184;42.018;23.670;2023-05-21T05:39:23;91223.09;;;18.84;49.07
44481;BME280;30184;42.018;23.670;2023-05-21T05:41:53;91211.66;;;18.91;47.37
44481;BME280;30184;42.018;23.670;2023-05-21T05:44:22;91232.94;;;18.59;46.59
44481;BME280;30184;42.018;23.670;2023-05-21T05:46:51;91230.44;;;18.36;47.21
44481;BME280;30184;42.018;23.670;2023-05-21T05:49:20;91210.78;;;18.43;46.59
44481;BME280;30184;42.018;23.670;2023-05-21T05:51:51;91215.63;;;18.27;47.92
44481;BME280;30184;42.018;23.670;2023-05-21T05:54:20;91213.50;;;18.11;48.64
44481;BME280;30184;42.018;23.670;2023-05-21T05:56:49;91225.75;;;17.90;46.02
44481;BME280;30184;42.018;23.670;2023-05-21T05:59:18;91228.56;;;17.70;46.39
44481;BME280;30184;42.018;23.670;2023-05-21T06:01:49;91223.56;;;17.53;44.40
44481;BME280;30184;42.018;23.670;2023-05-21T06:04:18;91234.91;;;17.21;44.74
44481;BME280;30184;42.018;23.670;2023-05-21T06:06:47;91237.50;;;17.09;46.48
44481;BME280;30184;42.018;23.670;2023-05-21T06:09:19;91226.84;;;16.97;45.75
44481;BME280;30184;42.018;23.670;2023-05-21T06:11:49;91231.81;;;16.78;45.65
44481;BME280;30184;42.018;23.670;2023-05-21T06:14:18;91226.19;;;16.67;47.03
44481;BME280;30184;42.018;23.670;2023-05-21T06:16:48;91243.16;;;16.71;45.97
44481;BME280;30184;42.018;23.670;2023-05-21T06:19:17;91236.75;;;16.74;45.54
44481;BME280;30184;42.018;23.670;2023-05-21T06:21:47;91236.44;;;16.72;45.62
44481;BME280;30184;42.018;23.670;2023-05-21T06:24:16;91237.03;;;16.76;45.91
44481;BME280;30184;42.018;23.670;2023-05-21T06:26:47;91234.94;;;16.86;45.88
44481;BME280;30184;42.018;23.670;2023-05-21T06:29:17;91233.28;;;16.94;46.84
44481;BME280;30184;42.018;23.670;2023-05-21T06:31:46;91223.16;;;17.00;45.36
44481;BME280;30184;42.018;23.670;2023-05-21T06:34:16;91221.91;;;17.01;44.96
44481;BME280;30184;42.018;23.670;2023-05-21T06:36:45;91227.72;;;17.23;44.09
44481;BME280;30184;42.018;23.670;2023-05-21T06:39:14;91230.22;;;17.27;44.46
44481;BME280;30184;42.018;23.670;2023-05-21T06:41:43;91188.63;;;17.08;44.54
44481;BME280;30184;42.018;23.670;2023-05-21T06:44:32;91156.47;;;16.88;44.34
44481;BME280;30184;42.018;23.670;2023-05-21T06:47:09;91216.53;;;17.47;44.51
44481;BME280;30184;42.018;23.670;2023-05-21T06:49:38;91229.06;;;17.33;44.19
44481;BME280;30184;42.018;23.670;2023-05-21T06:52:07;91219.34;;;17.32;43.94
44481;BME280;30184;42.018;23.670;2023-05-21T06:54:37;91218.66;;;17.58;43.96
44481;BME280;30184;42.018;23.670;2023-05-21T06:57:07;91221.94;;;17.82;44.87
44481;BME280;30184;42.018;23.670;2023-05-21T06:59:38;90925.41;;;15.90;44.95
44481;BME280;30184;42.018;23.670;2023-05-21T07:02:07;91226.34;;;18.00;43.19
44481;BME280;30184;42.018;23.670;2023-05-21T07:04:36;91218.09;;;17.74;41.72
44481;BME280;30184;42.018;23.670;2023-05-21T07:07:05;91237.31;;;17.74;43.34
44481;BME280;30184;42.018;23.670;2023-05-21T07:09:34;91223.16;;;17.81;43.15
44481;BME280;30184;42.018;23.670;2023-05-21T07:12:04;91242.31;;;17.75;42.80
44481;BME280;30184;42.018;23.670;2023-05-21T07:14:33;91232.09;;;17.76;42.57
44481;BME280;30184;42.018;23.670;2023-05-21T07:17:04;91225.53;;;17.68;43.57
44481;BME280;30184;42.018;23.670;2023-05-21T07:19:33;91242.03;;;17.53;44.40
44481;BME280;30184;42.018;23.670;2023-05-21T07:22:04;91235.59;;;17.56;45.04
44481;BME280;30184;42.018;23.670;2023-05-21T07:24:34;91248.03;;;17.51;44.67
44481;BME280;30184;42.018;23.670;2023-05-21T07:27:03;91194.91;;;16.94;44.28
44481;BME280;30184;42.018;23.670;2023-05-21T07:29:38;91261.97;;;17.13;45.12
44481;BME280;30184;42.018;23.670;2023-05-21T07:32:08;91262.22;;;17.15;45.14
44481;BME280;30184;42.018;23.670;2023-05-21T07:34:37;91252.06;;;17.01;44.94
44481;BME280;30184;42.018;23.670;2023-05-21T07:37:07;91277.22;;;16.99;45.30
44481;BME280;30184;42.018;23.670;2023-05-21T07:39:36;91282.97;;;17.01;45.46
44481;BME280;30184;42.018;23.670;2023-05-21T07:42:05;91273.31;;;17.06;45.00
44481;BME280;30184;42.018;23.670;2023-05-21T07:44:34;91291.69;;;17.00;44.98
44481;BME280;30184;42.018;23.670;2023-05-21T07:47:04;91275.16;;;16.79;44.15
44481;BME280;30184;42.018;23.670;2023-05-21T07:49:35;91285.69;;;16.66;44.35
44481;BME280;30184;42.018;23.670;2023-05-21T07:52:05;91274.41;;;16.79;44.86
44481;BME280;30184;42.018;23.670;2023-05-21T07:54:34;91275.22;;;17.00;43.66
44481;BME280;30184;42.018;23.670;2023-05-21T07:57:04;91260.25;;;16.81;43.75
44481;BME280;30184;42.018;23.670;2023-05-21T07:59:48;91271.72;;;17.14;43.20
44481;BME280;30184;42.018;23.670;2023-05-21T08:02:17;91250.72;;;17.11;43.41
44481;BME280;30184;42.018;23.670;2023-05-21T08:04:48;91265.53;;;17.19;43.71
44481;BME280;30184;42.018;23.670;2023-05-21T08:07:19;91267.22;;;17.31;43.75
44481;BME280;30184;42.018;23.670;2023-05-21T08:09:48;91270.81;;;17.43;43.67
44481;BME280;30184;42.018;23.670;2023-05-21T08:12:18;91259.25;;;17.53;42.62
44481;BME280;30184;42.018;23.670;2023-05-21T08:14:47;91261.53;;;17.75;42.48
44481;BME280;30184;42.018;23.670;2023-05-21T08:17:16;91257.91;;;17.64;42.56
44481;BME280;30184;42.018;23.670;2023-05-21T08:19:45;91254.31;;;17.58;42.31
44481;BME280;30184;42.018;23.670;2023-05-21T08:22:16;91243.06;;;17.35;42.12
44481;BME280;30184;42.018;23.670;2023-05-21T08:24:45;91253.75;;;17.33;43.11
44481;BME280;30184;42.018;23.670;2023-05-21T08:27:14;91258.88;;;17.26;42.74
44481;BME280;30184;42.018;23.670;2023-05-21T08:29:44;91243.31;;;17.17;43.16
44481;BME280;30184;42.018;23.670;2023-05-21T08:32:13;91263.06;;;17.21;43.50
44481;BME280;30184;42.018;23.670;2023-05-21T08:34:42;91246.16;;;17.23;41.89
44481;BME280;30184;42.018;23.670;2023-05-21T08:37:30;91266.16;;;17.29;41.22
44481;BME280;30184;42.018;23.670;2023-05-21T08:40:20;91252.72;;;17.31;42.30
44481;BME280;30184;42.018;23.670;2023-05-21T08:42:50;91260.88;;;17.25;42.09
44481;BME280;30184;42.018;23.670;2023-05-21T08:45:26;91277.44;;;17.16;42.70
44481;BME280;30184;42.018;23.670;2023-05-21T08:47:58;91134.66;;;16.09;43.48
44481;BME280;30184;42.018;23.670;2023-05-21T08:50:31;91285.28;;;17.23;44.08
44481;BME280;30184;42.018;23.670;2023-05-21T08:53:08;91273.28;;;16.86;43.27
44481;BME280;30184;42.018;23.670;2023-05-21T08:55:42;91271.72;;;17.14;44.08
44481;BME280;30184;42.018;23.670;2023-05-21T08:58:11;91267.31;;;17.42;43.92
44481;BME280;30184;42.018;23.670;2023-05-21T09:00:41;91279.09;;;17.63;43.62
44481;BME280;30184;42.018;23.670;2023-05-21T09:03:11;91279.22;;;17.74;42.76
44481;BME280;30184;42.018;23.670;2023-05-21T09:05:44;91272.03;;;17.97;42.33
44481;BME280;30184;42.018;23.670;2023-05-21T09:08:18;91270.72;;;18.18;42.41
44481;BME280;30184;42.018;23.670;2023-05-21T09:10:55;91273.47;;;18.18;42.63
44481;BME280;30184;42.018;23.670;2023-05-21T09:13:30;91254.94;;;18.39;41.48
44481;BME280;30184;42.018;23.670;2023-05-21T09:16:06;91254.09;;;18.53;42.58
44481;BME280;30184;42.018;23.670;2023-05-21T09:18:35;91245.47;;;18.66;41.26
44481;BME280;30184;42.018;23.670;2023-05-21T09:21:25;91237.91;;;18.92;41.21
44481;BME280;30184;42.018;23.670;2023-05-21T09:24:02;91164.34;;;18.76;40.34
44481;BME280;30184;42.018;23.670;2023-05-21T09:26:32;91245.06;;;19.53;40.19
44481;BME280;30184;42.018;23.670;2023-05-21T09:29:04;91243.75;;;19.48;38.40
44481;BME280;30184;42.018;23.670;2023-05-21T09:31:33;91242.16;;;19.30;38.47
44481;BME280;30184;42.018;23.670;2023-05-21T09:34:03;91245.91;;;19.27;38.27
44481;BME280;30184;42.018;23.670;2023-05-21T09:36:36;91253.97;;;18.99;38.00
44481;BME280;30184;42.018;23.670;2023-05-21T09:39:06;91256.19;;;18.95;38.04
44481;BME280;30184;42.018;23.670;2023-05-21T09:41:41;91260.25;;;19.06;38.50
44481;BME280;30184;42.018;23.670;2023-05-21T09:44:10;91268.25;;;19.04;38.02
44481;BME280;30184;42.018;23.670;2023-05-21T09:46:40;91272.00;;;19.06;37.60
44481;BME280;30184;42.018;23.670;2023-05-21T09:49:21;91269.19;;;18.95;37.92
44481;BME280;30184;42.018;23.670;2023-05-21T09:51:54;91264.25;;;19.05;38.08
44481;BME280;30184;42.018;23.670;2023-05-21T09:54:30;91254.56;;;19.15;37.96
44481;BME280;30184;42.018;23.670;2023-05-21T09:57:00;91270.72;;;19.01;37.05
44481;BME280;30184;42.018;23.670;2023-05-21T09:59:36;91266.78;;;18.77;37.87
44481;BME280;30184;42.018;23.670;2023-05-21T10:02:16;91203.66;;;18.25;37.82
44481;BME280;30184;42.018;23.670;2023-05-21T10:04:48;91268.00;;;18.70;38.04
44481;BME280;30184;42.018;23.670;2023-05-21T10:07:19;91271.00;;;18.72;38.27
44481;BME280;30184;42.018;23.670;2023-05-21T10:09:55;91268.22;;;18.41;38.67
44481;BME280;30184;42.018;23.670;2023-05-21T10:12:26;91272.50;;;18.47;38.90
44481;BME280;30184;42.018;23.670;2023-05-21T10:14:59;91268.72;;;18.45;38.56
44481;BME280;30184;42.018;23.670;2023-05-21T10:17:29;91275.50;;;18.44;38.77
44481;BME280;30184;42.018;23.670;2023-05-21T10:19:58;91271.13;;;18.32;39.34
44481;BME280;30184;42.018;23.670;2023-05-21T10:22:28;91278.56;;;18.25;39.35
44481;BME280;30184;42.018;23.670;2023-05-21T10:25:00;91276.03;;;18.22;38.99
44481;BME280;30184;42.018;23.670;2023-05-21T10:27:32;91279.56;;;18.02;39.50
44481;BME280;30184;42.018;23.670;2023-05-21T10:30:03;91245.41;;;17.83;39.21
44481;BME280;30184;42.018;23.670;2023-05-21T10:32:33;91276.06;;;18.02;39.57
44481;BME280;30184;42.018;23.670;2023-05-21T10:35:03;91277.75;;;17.99;40.08
44481;BME280;30184;42.018;23.670;2023-05-21T10:37:34;91279.81;;;18.04;40.14
44481;BME280;30184;42.018;23.670;2023-05-21T10:40:07;91275.56;;;18.03;40.17
44481;BME280;30184;42.018;23.670;2023-05-21T10:43:04;91278.66;;;17.90;40.62
44481;BME280;30184;42.018;23.670;2023-05-21T10:45:47;91274.94;;;17.68;41.20
44481;BME280;30184;42.018;23.670;2023-05-21T10:48:34;91275.31;;;17.61;41.73
44481;BME280;30184;42.018;23.670;2023-05-21T10:51:17;91267.44;;;17.68;41.70
44481;BME280;30184;42.018;23.670;2023-05-21T10:54:03;91272.56;;;17.61;41.98
44481;BME280;30184;42.018;23.670;2023-05-21T10:56:41;91294.75;;;17.77;43.02
44481;BME280;30184;42.018;23.670;2023-05-21T10:59:21;91272.09;;;17.82;43.03
44481;BME280;30184;42.018;23.670;2023-05-21T11:01:55;91266.31;;;17.60;42.65
44481;BME280;30184;42.018;23.670;2023-05-21T11:04:25;91225.22;;;17.45;42.85
44481;BME280;30184;42.018;23.670;2023-05-21T11:06:57;91258.75;;;17.70;43.57
44481;BME280;30184;42.018;23.670;2023-05-21T11:09:26;91254.09;;;17.81;43.28
44481;BME280;30184;42.018;23.670;2023-05-21T11:11:58;91254.84;;;18.02;42.91
44481;BME280;30184;42.018;23.670;2023-05-21T11:14:29;91261.56;;;18.27;42.30
44481;BME280;30184;42.018;23.670;2023-05-21T11:17:02;91243.94;;;18.34;41.22
44481;BME280;30184;42.018;23.670;2023-05-21T11:19:37;91247.56;;;18.51;42.46
44481;BME280;30184;42.018;23.670;2023-05-21T11:22:08;91239.22;;;18.66;41.50
44481;BME280;30184;42.018;23.670;2023-05-21T11:24:39;91244.41;;;18.58;40.79
44481;BME280;30184;42.018;23.670;2023-05-21T11:27:10;91235.72;;;18.65;41.60
44481;BME280;30184;42.018;23.670;2023-05-21T11:29:41;91248.84;;;18.55;41.06
44481;BME280;30184;42.018;23.670;2023-05-21T11:32:12;91220.44;;;18.33;41.83
44481;BME280;30184;42.018;23.670;2023-05-21T11:34:44;91235.50;;;18.43;43.20
44481;BME280;30184;42.018;23.670;2023-05-21T11:37:25;91231.44;;;18.64;43.34
44481;BME280;30184;42.018;23.670;2023-05-21T11:40:14;91238.09;;;18.83;42.97
44481;BME280;30184;42.018;23.670;2023-05-21T11:42:49;91240.72;;;18.98;42.89
44481;BME280;30184;42.018;23.670;2023-05-21T11:45:20;91233.81;;;19.19;42.05
44481;BME280;30184;42.018;23.670;2023-05-21T11:47:50;91239.88;;;19.29;42.39
44481;BME280;30184;42.018;23.670;2023-05-21T11:50:20;91221.53;;;19.52;40.85
44481;BME280;30184;42.018;23.670;2023-05-21T11:52:50;91232.75;;;19.48;41.17
44481;BME280;30184;42.018;23.670;2023-05-21T11:55:21;91228.03;;;19.54;40.42
44481;BME280;30184;42.018;23.670;2023-05-21T11:57:53;91215.06;;;19.60;40.75
44481;BME280;30184;42.018;23.670;2023-05-21T12:00:23;91229.59;;;19.66;40.94
44481;BME280;30184;42.018;23.670;2023-05-21T12:02:52;91213.06;;;19.61;40.21
44481;BME280;30184;42.018;23.670;2023-05-21T12:05:22;91196.13;;;19.25;40.78
44481;BME280;30184;42.018;23.670;2023-05-21T12:07:51;91223.81;;;19.59;41.22
44481;BME280;30184;42.018;23.670;2023-05-21T12:10:22;91245.44;;;19.34;39.48
44481;BME280;30184;42.018;23.670;2023-05-21T12:12:52;91222.06;;;19.19;39.94
44481;BME280;30184;42.018;23.670;2023-05-21T12:15:24;91231.22;;;18.99;41.53
44481;BME280;30184;42.018;23.670;2023-05-21T12:17:54;91227.94;;;18.95;41.75
44481;BME280;30184;42.018;23.670;2023-05-21T12:20:27;91249.97;;;19.00;41.56
44481;BME280;30184;42.018;23.670;2023-05-21T12:22:56;91252.84;;;18.80;41.83
44481;BME280;30184;42.018;23.670;2023-05-21T12:25:27;91260.88;;;18.58;42.75
44481;BME280;30184;42.018;23.670;2023-05-21T12:28:00;91261.25;;;18.19;41.82
44481;BME280;30184;42.018;23.670;2023-05-21T12:30:30;91257.28;;;17.74;42.38
44481;BME280;30184;42.018;23.670;2023-05-21T12:32:59;91276.63;;;17.85;43.43
44481;BME280;30184;42.018;23.670;2023-05-21T12:35:29;91290.94;;;17.54;44.34
44481;BME280;30184;42.018;23.670;2023-05-21T12:38:00;91343.03;;;17.34;45.65
44481;BME280;30184;42.018;23.670;2023-05-21T12:40:36;91278.03;;;17.40;46.79
44481;BME280;30184;42.018;23.670;2023-05-21T12:43:07;91236.63;;;16.83;48.38
44481;BME280;30184;42.018;23.670;2023-05-21T12:45:36;91312.41;;;16.71;48.62
44481;BME280;30184;42.018;23.670;2023-05-21T12:48:07;91294.66;;;16.67;50.48
44481;BME280;30184;42.018;23.670;2023-05-21T12:50:38;91273.19;;;16.51;50.51
44481;BME280;30184;42.018;23.670;2023-05-21T12:53:08;91246.75;;;16.33;51.16
44481;BME280;30184;42.018;23.670;2023-05-21T12:55:37;91289.94;;;16.38;50.64
44481;BME280;30184;42.018;23.670;2023-05-21T12:58:12;91231.00;;;15.98;51.28
44481;BME280;30184;42.018;23.670;2023-05-21T13:00:41;91291.34;;;16.33;50.84
44481;BME280;30184;42.018;23.670;2023-05-21T13:03:12;91286.06;;;16.30;51.77
44481;BME280;30184;42.018;23.670;2023-05-21T13:05:41;91259.97;;;16.05;52.53
44481;BME280;30184;42.018;23.670;2023-05-21T13:08:11;91282.25;;;16.13;53.36
44481;BME280;30184;42.018;23.670;2023-05-21T13:10:42;91272.63;;;16.17;53.52